McCook, Nebraska
Current Conditions -  °F | °C
As of 2:53 AM on Sunday 26 Oct 2014 (Local Time) from KMCK Reporting Station
Clear Clear  
Wind Chill: 45°   Ceiling: Unl
Heat Index: 48°   Visibility: 9mi
Dew Point: 45°   Wind: 7mph
Humidity: 89%   Direction: 30°NNE
Pressure: 29.83"   Gusts: NA
Location:  40.2°N, 100.62°W
Report Text: KMCK 260753Z AUTO 03006KT 9SM CLR 09/07 A2983 RMK AO2 SLP086 T00890072
Loading
Personal Weather Stations






























Interactive Weather Map
Tropical Storm Tracking
New forecast layout! Learn more

10-Day Weather Forecast

Advertisements
Track Severe Weather on mobile